»·PEaware :: ANW101 KIFP-KBUR

ANW101 :: KIFP-KBUR

FLIGHT INFORMATION

Flight Status: Arrived
Operator:
Air Northwest (website)
More flights by this operator :: More flights under this callsign
Pilot: Brian G. (1243)
Aircraft: BOEING 737-800
(B738)
More flights by this aircraft type
Origin: KIFP Laughlin/Bullhead Intl
United States
Destination: KBUR Bob Hope-Burbank
United States
More flights between these airports :: More routes between these airports
Route: EED V12 HEC LYNXX8
File this flight plan on PilotEdge
Remarks:
Altitude:
(Current/Filed)
24,000ft
Speed:
(Current/Filed)
447kts
Departed: 23-Mar-13 12:26 PM
Arrived: 23-Mar-13 01:16 PM
Distance/Time
Traveled:
196nm/0:50
Distance/Time
To Go:
Arrived

Flight Plot

Page will automatically refresh every two minutes.


Map Options




Map Legend


Flown Route
Filed Route
Departure Airport
Arrival Airport
Navaid (VOR, NDB)
Fix

Horizontal Profiles

Position Reports

Time Latitude Longitude Heading Altitude Ground
Speed
23-Mar-13 12:10 35.164047 -114.556499 85 704ft 0kts
23-Mar-13 12:11 35.164047 -114.556499 85 704ft 0kts
23-Mar-13 12:12 35.164047 -114.556499 85 704ft 0kts
23-Mar-13 12:13 35.164047 -114.556499 85 704ft 0kts
23-Mar-13 12:14 35.164047 -114.556499 85 704ft 0kts
23-Mar-13 12:15 35.164047 -114.556499 85 704ft 0kts
23-Mar-13 12:16 35.164047 -114.556499 85 704ft 0kts
23-Mar-13 12:17 35.164047 -114.556499 85 704ft 0kts
23-Mar-13 12:18 35.162781 -114.556938 204 704ft 7kts
23-Mar-13 12:19 35.162175 -114.558533 235 704ft 4kts
23-Mar-13 12:20 35.160537 -114.558590 176 704ft 8kts
23-Mar-13 12:21 35.157133 -114.558335 176 704ft 15kts
23-Mar-13 12:22 35.151916 -114.557931 176 704ft 21kts
23-Mar-13 12:23 35.147418 -114.557738 218 704ft 5kts
23-Mar-13 12:24 35.147356 -114.557841 253 704ft 0kts
23-Mar-13 12:25 35.147563 -114.558726 349 704ft 4kts
23-Mar-13 12:26 35.179653 -114.561254 354 2593ft 172kts
23-Mar-13 12:27 35.216367 -114.520440 85 6291ft 215kts
23-Mar-13 12:28 35.179685 -114.462933 165 9867ft 251kts
23-Mar-13 12:29 35.101656 -114.454728 185 13018ft 314kts
23-Mar-13 12:30 35.007559 -114.465834 185 16110ft 363kts
23-Mar-13 12:31 34.903839 -114.467335 187 19594ft 377kts
23-Mar-13 12:32 34.819176 -114.531669 241 22347ft 371kts
23-Mar-13 12:33 34.793305 -114.655368 265 24089ft 396kts
23-Mar-13 12:34 34.790470 -114.792160 270 24168ft 403kts
23-Mar-13 12:35 34.792447 -114.929358 270 24167ft 407kts
23-Mar-13 12:36 34.792058 -115.067580 268 24167ft 412kts
23-Mar-13 12:37 34.789739 -115.207783 269 24166ft 417kts
23-Mar-13 12:38 34.789996 -115.349788 270 24170ft 420kts
23-Mar-13 12:39 34.790674 -115.491947 270 24181ft 420kts
23-Mar-13 12:40 34.791445 -115.633072 270 24184ft 415kts
23-Mar-13 12:41 34.794270 -115.773198 271 24293ft 411kts
23-Mar-13 12:42 34.795915 -115.911559 270 24377ft 409kts
23-Mar-13 12:43 34.795405 -116.050720 269 24284ft 411kts
23-Mar-13 12:44 34.796451 -116.189399 271 24350ft 409kts
23-Mar-13 12:45 34.800975 -116.327795 272 24355ft 410kts
23-Mar-13 12:46 34.802409 -116.466685 268 24334ft 410kts
23-Mar-13 12:47 34.794508 -116.599134 264 23258ft 370kts
23-Mar-13 12:48 34.780999 -116.719889 262 21455ft 354kts
23-Mar-13 12:49 34.767926 -116.818070 262 19950ft 350kts
23-Mar-13 12:50 34.757304 -116.954772 265 17855ft 348kts
23-Mar-13 12:51 34.747360 -117.071660 262 16057ft 347kts
23-Mar-13 12:52 34.732178 -117.191942 261 14263ft 374kts
23-Mar-13 12:53 34.718672 -117.294565 261 14016ft 358kts
23-Mar-13 12:54 34.704199 -117.410851 263 14012ft 344kts
23-Mar-13 12:55 34.689035 -117.555045 263 13992ft 390kts
23-Mar-13 12:56 34.676750 -117.686712 264 13606ft 395kts
23-Mar-13 12:57 34.666455 -117.794434 265 12123ft 378kts
23-Mar-13 12:58 34.653371 -117.932693 263 10041ft 319kts
23-Mar-13 12:59 34.641858 -118.013903 260 8558ft 280kts
23-Mar-13 13:00 34.627344 -118.103489 259 7998ft 267kts
23-Mar-13 13:01 34.605718 -118.205896 256 8017ft 268kts
23-Mar-13 13:02 34.588624 -118.278428 255 8017ft 269kts
23-Mar-13 13:03 34.568478 -118.363391 257 7220ft 240kts
23-Mar-13 13:04 34.552144 -118.435941 251 6954ft 220kts
23-Mar-13 13:05 34.502525 -118.482444 213 6999ft 230kts
23-Mar-13 13:06 34.449796 -118.518280 212 5736ft 201kts
23-Mar-13 13:07 34.402537 -118.551054 212 5060ft 193kts
23-Mar-13 13:08 34.355531 -118.583738 212 5002ft 195kts
23-Mar-13 13:09 34.308242 -118.616504 212 4986ft 194kts
23-Mar-13 13:10 34.252688 -118.616530 172 4660ft 213kts
23-Mar-13 13:11 34.202069 -118.593276 126 4131ft 196kts
23-Mar-13 13:12 34.193604 -118.530038 89 3134ft 175kts
23-Mar-13 13:13 34.199245 -118.472132 89 2487ft 171kts
23-Mar-13 13:14 34.198570 -118.416469 90 1592ft 161kts
23-Mar-13 13:15 34.197871 -118.364809 90 787ft 106kts
23-Mar-13 13:16 34.197246 -118.360293 178 787ft 0kts
23-Mar-13 13:17 34.196623 -118.362675 228 787ft 2kts
23-Mar-13 13:18 34.195985 -118.362762 181 787ft 0kts

Navigation Log

Ident Type
Flight plan parsing failed, navigation log unavailable